Time;durP1;ratioP1;P1;durP2;ratioP2;P2;SDS_P1;SDS_P2;PMS_P1;PMS_P2;Temp;Humidity;BMP_temperature;BMP_pressure;BME280_temperature;BME280_humidity;BME280_pressure;Samples;Min_cycle;Max_cycle;Signal;HPM_P1;HPM_P2
2023/05/08 00:00:10;;;;;;;2.20;1.40;;;15.40;99.90;;;;;;5074322;28;20436;-66
2023/05/08 00:02:40;;;;;;;4.10;1.40;;;15.40;99.90;;;;;;5073766;28;20440;-66
2023/05/08 00:05:08;;;;;;;2.20;1.33;;;15.40;99.90;;;;;;5073982;28;20969;-66
2023/05/08 00:07:36;;;;;;;3.33;1.53;;;15.40;99.90;;;;;;5074022;28;20436;-66
2023/05/08 00:10:08;;;;;;;2.27;1.57;;;15.40;99.90;;;;;;5074048;28;20435;-66
2023/05/08 00:12:36;;;;;;;2.30;1.40;;;15.40;99.90;;;;;;5074162;28;20475;-66
2023/05/08 00:15:06;;;;;;;3.17;1.60;;;15.40;99.90;;;;;;5074385;28;20446;-66
2023/05/08 00:17:34;;;;;;;2.43;1.20;;;15.30;99.90;;;;;;5072893;28;20510;-66
2023/05/08 00:20:10;;;;;;;2.20;1.40;;;15.30;99.90;;;;;;5073184;28;20435;-66
2023/05/08 00:22:38;;;;;;;2.17;1.13;;;15.40;99.90;;;;;;5074083;28;20440;-66
2023/05/08 00:25:08;;;;;;;2.70;1.30;;;15.40;99.90;;;;;;5073805;28;20505;-66
2023/05/08 00:27:40;;;;;;;1.97;1.10;;;15.40;99.90;;;;;;5073920;28;20443;-66
2023/05/08 00:30:10;;;;;;;2.23;1.23;;;15.40;99.90;;;;;;5073117;28;20439;-66
2023/05/08 00:32:37;;;;;;;2.00;0.93;;;15.30;99.90;;;;;;5073645;28;20475;-66
2023/05/08 00:35:06;;;;;;;2.43;1.30;;;15.30;99.90;;;;;;5073198;28;20497;-66
2023/05/08 00:37:36;;;;;;;2.27;1.00;;;15.30;99.90;;;;;;5073604;28;20436;-67
2023/05/08 00:40:04;;;;;;;2.00;1.17;;;15.30;99.90;;;;;;5073412;28;20431;-66
2023/05/08 00:42:31;;;;;;;2.80;1.60;;;15.30;99.90;;;;;;5073670;28;20435;-67
2023/05/08 00:45:03;;;;;;;3.13;1.70;;;15.30;99.90;;;;;;5073174;28;20523;-66
2023/05/08 00:47:32;;;;;;;3.53;1.57;;;15.30;99.90;;;;;;5073455;28;20447;-66
2023/05/08 00:50:02;;;;;;;2.80;1.40;;;15.30;99.90;;;;;;5073051;28;20436;-66
2023/05/08 00:52:33;;;;;;;2.00;1.10;;;15.30;99.90;;;;;;5073087;28;20962;-66
2023/05/08 00:55:04;;;;;;;2.50;1.33;;;15.30;99.90;;;;;;5073201;28;20476;-66
2023/05/08 00:57:34;;;;;;;3.20;1.97;;;15.30;99.90;;;;;;5073077;28;20440;-66
2023/05/08 01:00:03;;;;;;;2.10;1.10;;;15.20;99.90;;;;;;5073079;28;20436;-66
2023/05/08 01:02:33;;;;;;;2.80;1.30;;;15.20;99.90;;;;;;5072720;28;20447;-66
2023/05/08 01:05:06;;;;;;;4.47;1.33;;;15.20;99.90;;;;;;5072997;28;20440;-66
2023/05/08 01:07:38;;;;;;;2.60;1.50;;;15.20;99.90;;;;;;5072930;28;20436;-66
2023/05/08 01:10:09;;;;;;;2.40;1.60;;;15.20;99.90;;;;;;5072625;28;20482;-67
2023/05/08 01:13:05;;;;;;;3.03;1.80;;;15.20;99.90;;;;;;5073021;28;20515;-66
2023/05/08 01:15:43;;;;;;;4.50;1.87;;;15.20;99.90;;;;;;5053178;28;20511;-66
2023/05/08 01:18:19;;;;;;;3.47;1.60;;;15.20;99.90;;;;;;5054078;28;20461;-67
2023/05/08 01:21:02;;;;;;;2.67;1.93;;;15.20;99.90;;;;;;5072315;28;20451;-69
2023/05/08 01:23:50;;;;;;;4.93;2.00;;;15.10;99.90;;;;;;5072352;28;20436;-66
2023/05/08 01:27:11;;;;;;;3.17;2.03;;;15.20;99.90;;;;;;5073090;28;20518;-66
2023/05/08 01:30:36;;;;;;;4.00;1.67;;;15.20;99.90;;;;;;5044005;28;20436;-66
2023/05/08 01:33:14;;;;;;;3.00;2.03;;;15.10;99.90;;;;;;4996019;28;20489;-68
2023/05/08 01:35:45;;;;;;;3.83;1.60;;;15.10;99.90;;;;;;5010966;28;20438;-68
2023/05/08 01:38:27;;;;;;;3.17;1.80;;;15.10;99.90;;;;;;5054682;28;20438;-68
2023/05/08 01:41:02;;;;;;;2.10;1.20;;;15.20;99.90;;;;;;5072242;28;20448;-68
2023/05/08 01:43:39;;;;;;;2.70;1.73;;;15.10;99.90;;;;;;5072318;28;20431;-68
2023/05/08 01:46:14;;;;;;;2.13;1.43;;;15.10;99.90;;;;;;5072839;28;20519;-66
2023/05/08 01:48:49;;;;;;;3.27;1.70;;;15.10;99.90;;;;;;5072393;28;20435;-66
2023/05/08 01:51:20;;;;;;;2.97;1.40;;;15.10;99.90;;;;;;5072098;28;20508;-67
2023/05/08 01:53:56;;;;;;;2.53;1.60;;;15.10;99.90;;;;;;5072276;28;20521;-67
2023/05/08 01:56:27;;;;;;;2.40;1.77;;;15.10;99.90;;;;;;5072271;28;20469;-67
2023/05/08 01:59:01;;;;;;;2.40;1.67;;;15.10;99.90;;;;;;5072506;28;20436;-67
2023/05/08 02:01:35;;;;;;;2.23;1.50;;;15.10;99.90;;;;;;5072615;28;20435;-67
2023/05/08 02:04:07;;;;;;;2.40;1.60;;;15.10;99.90;;;;;;5072423;28;20472;-66
2023/05/08 02:06:37;;;;;;;2.50;1.77;;;15.10;99.90;;;;;;5072244;28;20440;-67
2023/05/08 02:09:08;;;;;;;3.70;1.77;;;15.10;99.90;;;;;;5076379;28;20436;-67
2023/05/08 02:11:41;;;;;;;2.53;1.57;;;15.10;99.90;;;;;;5056479;28;20967;-67
2023/05/08 02:14:11;;;;;;;2.50;1.80;;;15.10;99.90;;;;;;5056736;28;20531;-66
2023/05/08 02:16:40;;;;;;;2.90;1.47;;;15.10;99.90;;;;;;5056240;28;20429;-67
2023/05/08 02:19:10;;;;;;;2.30;1.70;;;15.10;99.90;;;;;;5016746;28;20861;-67
2023/05/08 02:21:41;;;;;;;3.90;2.23;;;15.10;99.90;;;;;;5016509;28;20525;-67
2023/05/08 02:24:11;;;;;;;2.70;1.87;;;15.10;99.90;;;;;;5016765;28;20442;-67
2023/05/08 02:26:46;;;;;;;2.70;2.00;;;15.10;99.90;;;;;;5035886;28;20437;-67
2023/05/08 02:29:19;;;;;;;2.90;2.13;;;15.10;99.90;;;;;;5036260;28;20436;-67
2023/05/08 02:31:49;;;;;;;3.57;2.20;;;15.10;99.90;;;;;;5032528;28;20484;-67
2023/05/08 02:34:19;;;;;;;7.63;2.07;;;15.10;99.90;;;;;;5035587;28;20477;-67
2023/05/08 02:36:47;;;;;;;2.50;1.93;;;15.10;99.90;;;;;;5036378;28;20445;-67
2023/05/08 02:39:19;;;;;;;9.83;7.07;;;15.10;99.90;;;;;;5035633;28;20492;-67
2023/05/08 02:41:47;;;;;;;3.43;2.80;;;15.10;99.90;;;;;;5035567;28;20448;-66
2023/05/08 02:44:15;;;;;;;3.33;2.93;;;15.10;99.90;;;;;;5036172;28;20438;-67
2023/05/08 02:46:49;;;;;;;4.13;2.20;;;15.10;99.90;;;;;;5035596;28;20491;-67
2023/05/08 02:49:27;;;;;;;2.67;1.90;;;15.10;99.90;;;;;;5035822;28;20441;-67
2023/05/08 02:52:00;;;;;;;3.30;2.93;;;15.10;99.90;;;;;;5035260;28;20444;-67
2023/05/08 02:54:38;;;;;;;3.10;2.30;;;15.10;99.90;;;;;;5035635;28;20999;-66
2023/05/08 02:57:22;;;;;;;3.73;2.80;;;15.10;99.90;;;;;;5035574;28;20453;-67
2023/05/08 02:59:59;;;;;;;5.80;1.87;;;15.10;99.90;;;;;;5035276;28;20809;-67
2023/05/08 03:02:33;;;;;;;2.63;1.70;;;15.10;99.90;;;;;;5035700;28;20460;-67
2023/05/08 03:05:09;;;;;;;3.23;2.17;;;15.10;99.90;;;;;;5035343;28;20793;-67
2023/05/08 03:07:42;;;;;;;2.47;1.80;;;15.00;99.90;;;;;;5035703;28;20476;-67
2023/05/08 03:10:14;;;;;;;2.60;1.73;;;15.00;99.90;;;;;;5035172;28;20441;-67
2023/05/08 03:12:46;;;;;;;4.10;1.70;;;15.00;99.90;;;;;;5035649;28;20483;-67
2023/05/08 03:15:19;;;;;;;3.00;1.80;;;15.00;99.90;;;;;;5034782;28;20469;-67
2023/05/08 03:17:49;;;;;;;3.63;1.50;;;15.00;99.90;;;;;;5052578;28;20472;-67
2023/05/08 03:20:18;;;;;;;2.60;1.70;;;15.00;99.90;;;;;;5074749;28;20432;-67
2023/05/08 03:22:48;;;;;;;3.63;2.43;;;15.00;99.90;;;;;;5074878;28;20523;-66
2023/05/08 03:25:18;;;;;;;4.63;2.97;;;15.00;99.90;;;;;;5074651;28;20476;-67
2023/05/08 03:27:51;;;;;;;2.60;2.30;;;14.90;99.90;;;;;;5075137;28;20448;-67
2023/05/08 03:30:21;;;;;;;5.10;2.10;;;14.90;99.90;;;;;;5075019;28;20435;-67
2023/05/08 03:32:49;;;;;;;3.40;1.90;;;14.90;99.90;;;;;;5074365;28;20464;-66
2023/05/08 03:35:19;;;;;;;2.00;1.23;;;14.90;99.90;;;;;;5074630;28;20447;-67
2023/05/08 03:37:47;;;;;;;3.83;1.70;;;14.90;99.90;;;;;;5073481;28;20463;-67
2023/05/08 03:40:14;;;;;;;2.57;1.60;;;14.80;99.90;;;;;;5074090;28;20955;-67
2023/05/08 03:42:43;;;;;;;2.73;1.40;;;14.80;99.90;;;;;;5074832;28;20940;-66
2023/05/08 03:45:16;;;;;;;2.80;1.90;;;14.90;99.90;;;;;;5074092;28;20516;-67
2023/05/08 03:47:47;;;;;;;7.13;1.70;;;14.90;99.90;;;;;;5074319;28;20432;-67
2023/05/08 03:50:19;;;;;;;4.10;2.03;;;14.90;99.90;;;;;;5054776;28;20796;-67
2023/05/08 03:52:47;;;;;;;3.03;1.57;;;14.90;99.90;;;;;;5057916;28;20977;-67
2023/05/08 03:55:15;;;;;;;2.80;1.53;;;14.90;99.90;;;;;;5074736;28;20523;-67
2023/05/08 03:57:50;;;;;;;2.63;1.47;;;14.90;99.90;;;;;;5074274;28;20814;-67
2023/05/08 04:00:36;;;;;;;2.43;1.37;;;14.90;99.90;;;;;;5074471;28;20480;-67
2023/05/08 04:03:19;;;;;;;2.40;1.33;;;14.90;99.90;;;;;;5074407;28;20444;-67
2023/05/08 04:05:58;;;;;;;4.83;2.00;;;14.90;99.90;;;;;;5074248;28;20436;-67
2023/05/08 04:08:31;;;;;;;2.50;1.40;;;14.80;99.90;;;;;;5074128;28;20588;-67
2023/05/08 04:11:09;;;;;;;2.80;1.70;;;14.80;99.90;;;;;;5074650;28;20926;-67
2023/05/08 04:13:43;;;;;;;2.97;1.77;;;14.80;99.90;;;;;;5073907;28;20479;-67
2023/05/08 04:16:17;;;;;;;2.80;1.50;;;14.80;99.90;;;;;;5074212;28;20837;-67
2023/05/08 04:18:50;;;;;;;2.40;1.57;;;14.90;99.90;;;;;;5073767;28;20497;-67
2023/05/08 04:21:25;;;;;;;2.47;1.63;;;14.90;99.90;;;;;;5073711;28;20439;-67
2023/05/08 04:23:57;;;;;;;2.63;2.40;;;14.90;99.90;;;;;;5073640;28;20873;-67
2023/05/08 04:26:26;;;;;;;2.93;2.63;;;14.90;99.90;;;;;;5076171;28;20447;-67
2023/05/08 04:28:55;;;;;;;3.07;2.70;;;14.90;99.90;;;;;;5073256;28;20436;-67
2023/05/08 04:31:28;;;;;;;3.27;2.97;;;14.90;99.90;;;;;;5072625;28;20464;-68
2023/05/08 04:33:57;;;;;;;3.20;2.53;;;14.90;99.90;;;;;;5075867;28;20509;-67
2023/05/08 04:36:28;;;;;;;2.40;1.83;;;14.90;99.90;;;;;;5072673;28;20930;-68
2023/05/08 04:38:58;;;;;;;2.83;2.03;;;14.90;99.90;;;;;;5072790;28;20444;-67
2023/05/08 04:41:25;;;;;;;2.80;2.00;;;14.90;99.90;;;;;;5072857;28;20448;-67
2023/05/08 04:43:55;;;;;;;2.43;1.67;;;14.90;99.90;;;;;;5072958;28;20808;-67
2023/05/08 04:46:23;;;;;;;3.07;1.80;;;14.90;99.90;;;;;;5072781;28;20439;-67
2023/05/08 04:48:50;;;;;;;2.37;1.53;;;15.00;99.90;;;;;;5072565;28;20448;-67
2023/05/08 04:51:19;;;;;;;3.60;1.60;;;15.00;99.90;;;;;;5073379;28;20486;-68
2023/05/08 04:53:53;;;;;;;3.43;1.50;;;15.00;99.90;;;;;;5090292;28;20474;-67
2023/05/08 04:56:20;;;;;;;5.03;1.30;;;15.00;99.90;;;;;;5090958;28;20443;-67
2023/05/08 04:58:57;;;;;;;3.10;1.53;;;15.00;99.90;;;;;;5074868;28;20440;-67
2023/05/08 05:01:24;;;;;;;2.40;1.20;;;15.00;99.90;;;;;;5072858;28;20435;-67
2023/05/08 05:03:53;;;;;;;2.93;1.30;;;15.00;99.90;;;;;;5072221;28;20527;-67
2023/05/08 05:06:20;;;;;;;2.87;1.20;;;15.00;99.90;;;;;;5072334;28;20444;-67
2023/05/08 05:08:47;;;;;;;3.77;1.60;;;15.00;99.90;;;;;;5075881;28;20432;-67
2023/05/08 05:11:16;;;;;;;6.30;2.40;;;15.10;99.90;;;;;;5072026;28;20432;-67
2023/05/08 05:13:43;;;;;;;4.57;4.10;;;15.10;99.90;;;;;;5072548;28;20484;-67
2023/05/08 05:16:10;;;;;;;5.00;3.80;;;15.10;99.90;;;;;;5071937;28;20440;-67
2023/05/08 05:18:37;;;;;;;2.70;1.60;;;15.10;99.90;;;;;;5071998;28;20464;-67
2023/05/08 05:21:05;;;;;;;2.20;1.70;;;15.10;99.90;;;;;;5072292;28;21002;-67
2023/05/08 05:23:32;;;;;;;3.87;2.50;;;15.10;99.90;;;;;;5072257;28;20436;-67
2023/05/08 05:26:01;;;;;;;3.53;2.60;;;15.20;99.90;;;;;;5076271;28;20439;-67
2023/05/08 05:28:29;;;;;;;2.97;2.13;;;15.20;99.90;;;;;;5090582;28;20442;-67
2023/05/08 05:30:57;;;;;;;2.97;1.97;;;15.20;99.90;;;;;;5085606;28;20443;-67
2023/05/08 05:33:24;;;;;;;2.77;1.80;;;15.20;99.90;;;;;;5069601;28;20466;-67
2023/05/08 05:35:51;;;;;;;4.43;1.60;;;15.30;99.90;;;;;;5071427;28;20885;-67
2023/05/08 05:38:18;;;;;;;5.10;1.73;;;15.30;99.90;;;;;;5071141;28;20474;-67
2023/05/08 05:40:50;;;;;;;2.67;1.80;;;15.30;99.90;;;;;;5071690;28;20440;-67
2023/05/08 05:43:17;;;;;;;3.33;1.50;;;15.30;99.90;;;;;;5071903;28;20442;-67
2023/05/08 05:45:51;;;;;;;2.13;1.30;;;15.40;99.90;;;;;;5087000;28;20440;-67
2023/05/08 05:48:20;;;;;;;3.53;1.33;;;15.40;99.90;;;;;;5068483;28;20476;-67
2023/05/08 05:50:47;;;;;;;2.40;1.37;;;15.40;99.90;;;;;;5070879;28;20440;-67
2023/05/08 05:53:17;;;;;;;4.23;1.77;;;15.40;99.90;;;;;;5087279;28;20431;-67
2023/05/08 05:55:45;;;;;;;2.80;1.90;;;15.50;99.90;;;;;;5070736;28;20498;-67
2023/05/08 05:58:12;;;;;;;3.10;2.17;;;15.50;99.90;;;;;;5071190;28;20926;-67
2023/05/08 06:00:40;;;;;;;2.90;1.87;;;15.50;99.90;;;;;;5070495;28;20451;-67
2023/05/08 06:03:09;;;;;;;2.70;1.80;;;15.50;99.90;;;;;;5088786;28;20439;-68
2023/05/08 06:05:38;;;;;;;3.60;1.50;;;15.50;99.90;;;;;;5076104;28;20439;-67
2023/05/08 06:08:05;;;;;;;3.13;1.20;;;15.60;99.90;;;;;;5070377;28;20444;-67
2023/05/08 06:10:33;;;;;;;2.40;1.20;;;15.60;99.90;;;;;;5070392;28;20455;-67
2023/05/08 06:13:01;;;;;;;2.53;1.60;;;15.60;99.90;;;;;;5070484;28;20523;-67
2023/05/08 06:15:28;;;;;;;2.77;1.60;;;15.60;99.90;;;;;;5070586;28;20503;-67
2023/05/08 06:18:00;;;;;;;2.57;1.20;;;15.70;99.90;;;;;;5079348;28;20833;-67
2023/05/08 06:20:29;;;;;;;3.27;2.13;;;15.70;99.90;;;;;;5089094;28;20800;-67
2023/05/08 06:22:56;;;;;;;3.80;1.97;;;15.70;99.90;;;;;;5089100;28;20953;-67
2023/05/08 06:25:27;;;;;;;4.47;2.17;;;15.70;99.90;;;;;;5080072;28;20439;-67
2023/05/08 06:27:55;;;;;;;3.70;1.90;;;15.70;99.90;;;;;;5069296;28;20436;-67
2023/05/08 06:30:23;;;;;;;5.93;1.80;;;15.70;99.90;;;;;;5072047;28;20431;-67
2023/05/08 06:32:51;;;;;;;4.53;2.03;;;15.80;99.90;;;;;;5072541;28;20447;-67
2023/05/08 06:35:18;;;;;;;4.33;1.83;;;15.80;99.90;;;;;;5069880;28;20483;-67
2023/05/08 06:37:47;;;;;;;2.70;1.60;;;15.80;99.90;;;;;;5070966;28;20476;-67
2023/05/08 06:40:18;;;;;;;3.13;2.50;;;15.90;99.90;;;;;;5071470;28;20476;-67
2023/05/08 06:42:50;;;;;;;4.40;2.27;;;15.90;99.90;;;;;;5070680;28;20503;-67
2023/05/08 06:45:19;;;;;;;3.70;2.70;;;15.90;99.90;;;;;;5072134;28;20435;-67
2023/05/08 06:47:48;;;;;;;3.50;3.00;;;16.00;99.90;;;;;;5053511;28;20483;-67
2023/05/08 06:50:15;;;;;;;3.60;2.33;;;16.00;99.90;;;;;;5056040;28;20530;-67
2023/05/08 06:52:42;;;;;;;2.60;1.97;;;16.00;99.90;;;;;;5071719;28;20957;-67
2023/05/08 06:55:11;;;;;;;3.13;1.70;;;16.10;99.90;;;;;;5074801;28;20487;-67
2023/05/08 06:57:38;;;;;;;3.57;1.50;;;16.10;99.90;;;;;;5075307;28;20464;-67
2023/05/08 07:00:07;;;;;;;2.60;1.20;;;16.10;99.90;;;;;;5075109;28;20922;-67
2023/05/08 07:02:36;;;;;;;3.07;1.70;;;16.20;99.90;;;;;;5075013;28;20436;-67
2023/05/08 07:05:03;;;;;;;2.37;1.27;;;16.10;99.70;;;;;;5074977;28;20539;-67
2023/05/08 07:07:32;;;;;;;2.50;1.27;;;16.10;99.90;;;;;;5061090;28;20533;-67
2023/05/08 07:10:01;;;;;;;5.40;1.80;;;16.10;99.90;;;;;;5059284;28;20484;-67
2023/05/08 07:12:29;;;;;;;2.90;1.60;;;16.10;99.90;;;;;;5054991;28;20496;-67
2023/05/08 07:14:57;;;;;;;2.47;1.60;;;16.20;99.90;;;;;;5075104;28;20581;-67
2023/05/08 07:17:26;;;;;;;2.07;1.30;;;16.20;99.90;;;;;;5072576;28;20472;-67
2023/05/08 07:19:55;;;;;;;2.00;1.00;;;16.30;99.90;;;;;;5075284;28;20527;-67
2023/05/08 07:22:22;;;;;;;3.37;1.27;;;16.30;99.90;;;;;;5074457;28;20505;-67
2023/05/08 07:24:49;;;;;;;2.33;1.27;;;16.30;99.90;;;;;;5074679;28;20885;-67
2023/05/08 07:27:19;;;;;;;2.10;1.20;;;16.40;99.90;;;;;;5075393;28;20436;-67
2023/05/08 07:29:47;;;;;;;1.97;1.03;;;16.40;99.90;;;;;;5074216;28;20439;-67
2023/05/08 07:32:14;;;;;;;2.10;1.00;;;16.50;99.80;;;;;;5075393;28;20518;-67
2023/05/08 07:34:42;;;;;;;3.13;1.23;;;16.60;99.70;;;;;;5074668;28;20492;-67
2023/05/08 07:37:11;;;;;;;2.60;1.20;;;16.60;99.90;;;;;;5074783;28;20890;-67
2023/05/08 07:39:38;;;;;;;2.03;1.00;;;16.70;99.90;;;;;;5074979;28;20440;-67
2023/05/08 07:42:10;;;;;;;2.47;1.30;;;16.70;99.30;;;;;;5074552;28;20515;-67
2023/05/08 07:44:42;;;;;;;2.10;1.10;;;16.70;99.10;;;;;;5074336;28;20440;-67
2023/05/08 07:47:11;;;;;;;2.10;1.10;;;16.70;98.80;;;;;;5074116;28;20772;-67
2023/05/08 07:49:45;;;;;;;5.30;1.20;;;16.90;99.00;;;;;;5075245;28;20436;-67
2023/05/08 07:52:12;;;;;;;3.70;2.10;;;16.90;98.50;;;;;;5073530;28;20463;-67
2023/05/08 07:54:39;;;;;;;5.97;3.50;;;17.00;98.30;;;;;;5073981;28;20487;-67
2023/05/08 07:57:06;;;;;;;3.80;2.17;;;17.20;98.20;;;;;;5074274;28;20436;-67
2023/05/08 07:59:34;;;;;;;2.40;1.40;;;17.20;97.80;;;;;;5074486;28;20691;-67
2023/05/08 08:02:06;;;;;;;2.17;1.03;;;17.30;98.20;;;;;;5073926;28;20467;-67
2023/05/08 08:04:34;;;;;;;2.50;1.33;;;17.40;97.70;;;;;;5073341;28;20440;-67
2023/05/08 08:07:03;;;;;;;3.53;0.93;;;17.40;97.90;;;;;;5073370;28;20432;-67
2023/05/08 08:09:31;;;;;;;1.90;0.87;;;17.50;98.60;;;;;;5074207;28;20443;-67
2023/05/08 08:11:58;;;;;;;2.10;1.00;;;17.60;97.60;;;;;;5074121;28;20850;-67
2023/05/08 08:14:27;;;;;;;2.00;1.10;;;17.60;97.40;;;;;;5073471;28;21017;-67
2023/05/08 08:16:54;;;;;;;2.47;0.97;;;17.50;96.40;;;;;;5073371;28;20509;-67
2023/05/08 08:19:21;;;;;;;2.30;1.40;;;17.50;96.40;;;;;;5073949;28;20472;-67
2023/05/08 08:21:49;;;;;;;1.77;0.80;;;17.60;96.90;;;;;;5073490;28;20519;-67
2023/05/08 08:24:18;;;;;;;2.20;0.93;;;17.50;96.80;;;;;;5073377;28;20997;-67
2023/05/08 08:26:45;;;;;;;2.37;1.03;;;17.50;97.40;;;;;;5073466;28;20907;-67
2023/05/08 08:29:17;;;;;;;1.90;0.90;;;17.50;96.90;;;;;;5073617;28;20467;-67
2023/05/08 08:31:44;;;;;;;3.30;1.47;;;17.50;96.30;;;;;;5073561;28;20440;-68
2023/05/08 08:34:11;;;;;;;2.20;1.03;;;17.50;96.00;;;;;;5073281;28;20468;-67
2023/05/08 08:36:40;;;;;;;2.10;0.93;;;17.50;95.80;;;;;;5073225;28;20425;-67
2023/05/08 08:39:08;;;;;;;2.63;1.10;;;17.40;94.90;;;;;;5073620;28;20474;-67
2023/05/08 08:41:38;;;;;;;2.20;1.30;;;17.40;95.60;;;;;;5073509;28;20436;-67
2023/05/08 08:44:05;;;;;;;2.17;1.00;;;17.30;96.60;;;;;;5073354;28;20475;-67
2023/05/08 08:46:33;;;;;;;3.03;1.10;;;17.40;96.00;;;;;;5073333;28;20878;-67
2023/05/08 08:49:04;;;;;;;2.87;1.50;;;17.40;96.00;;;;;;5073021;28;20440;-67
2023/05/08 08:51:33;;;;;;;2.10;1.00;;;17.40;96.20;;;;;;5073093;28;20541;-67
2023/05/08 08:54:11;;;;;;;3.40;1.17;;;17.40;95.20;;;;;;5073374;28;20912;-67
2023/05/08 08:56:41;;;;;;;3.00;1.27;;;17.40;96.00;;;;;;5072878;28;21061;-67
2023/05/08 08:59:11;;;;;;;3.20;1.10;;;17.30;95.50;;;;;;5072817;28;20800;-67
2023/05/08 09:01:40;;;;;;;2.40;1.23;;;17.30;96.30;;;;;;5073059;28;20941;-67
2023/05/08 09:04:07;;;;;;;2.30;1.33;;;17.40;96.20;;;;;;5072795;28;20974;-67
2023/05/08 09:06:37;;;;;;;2.10;0.90;;;17.40;96.10;;;;;;5072851;28;20436;-67
2023/05/08 09:09:04;;;;;;;3.50;1.17;;;17.40;96.10;;;;;;5072746;28;20483;-67
2023/05/08 09:11:33;;;;;;;1.97;0.97;;;17.50;95.90;;;;;;5072839;28;20435;-67
2023/05/08 09:14:00;;;;;;;2.20;1.17;;;17.50;95.50;;;;;;5072506;28;20444;-67
2023/05/08 09:16:28;;;;;;;3.60;1.10;;;17.50;95.60;;;;;;5072261;28;20490;-67
2023/05/08 09:18:55;;;;;;;1.80;0.90;;;17.60;95.60;;;;;;5072252;28;20503;-67
2023/05/08 09:21:23;;;;;;;2.70;1.30;;;17.60;95.20;;;;;;5072820;28;20479;-67
2023/05/08 09:23:57;;;;;;;2.23;0.97;;;17.70;95.00;;;;;;5072544;28;20618;-67
2023/05/08 09:26:35;;;;;;;2.57;1.43;;;17.70;95.10;;;;;;5072496;28;20513;-67
2023/05/08 09:29:15;;;;;;;2.00;1.13;;;17.70;95.70;;;;;;5072543;28;20847;-68
2023/05/08 09:31:47;;;;;;;2.37;1.10;;;17.80;95.70;;;;;;5072310;28;20438;-68
2023/05/08 09:34:26;;;;;;;2.00;0.93;;;17.80;95.20;;;;;;5072326;28;20520;-67
2023/05/08 09:37:11;;;;;;;1.80;0.87;;;17.80;95.00;;;;;;5072628;28;20572;-67
2023/05/08 09:39:40;;;;;;;2.33;1.50;;;17.90;94.60;;;;;;5073286;28;20824;-67
2023/05/08 09:42:11;;;;;;;3.10;1.10;;;17.90;94.30;;;;;;5073057;28;20428;-67
2023/05/08 09:44:44;;;;;;;2.27;1.30;;;17.90;94.30;;;;;;5073333;28;20494;-67
2023/05/08 09:47:12;;;;;;;3.47;1.77;;;17.90;95.00;;;;;;5073428;28;20444;-67
2023/05/08 09:49:39;;;;;;;3.27;1.67;;;18.00;94.90;;;;;;5073944;28;20442;-67
2023/05/08 09:52:15;;;;;;;2.40;1.63;;;18.00;95.00;;;;;;5072418;28;20443;-67
2023/05/08 09:54:42;;;;;;;2.97;1.57;;;18.10;95.00;;;;;;5072520;28;20910;-67
2023/05/08 09:57:13;;;;;;;4.27;1.53;;;18.20;94.30;;;;;;5071949;28;20468;-67
2023/05/08 09:59:40;;;;;;;2.33;1.33;;;18.20;94.70;;;;;;5068356;28;20482;-67
2023/05/08 10:02:14;;;;;;;2.73;1.13;;;18.40;94.50;;;;;;5072194;28;20440;-67
2023/05/08 10:04:42;;;;;;;2.80;1.30;;;18.50;94.10;;;;;;5075521;28;20454;-67
2023/05/08 10:07:09;;;;;;;2.37;1.40;;;18.60;93.60;;;;;;5080188;28;20442;-67
2023/05/08 10:09:36;;;;;;;2.33;1.23;;;18.70;92.90;;;;;;5084860;28;20526;-67
2023/05/08 10:12:03;;;;;;;3.07;1.50;;;18.70;92.80;;;;;;5072290;28;20518;-67
2023/05/08 10:14:32;;;;;;;10.03;6.40;;;18.80;92.00;;;;;;5072129;28;20448;-67
2023/05/08 10:17:00;;;;;;;6.90;4.13;;;18.80;92.70;;;;;;5071378;28;20579;-67
2023/05/08 10:19:28;;;;;;;3.50;2.40;;;19.00;93.40;;;;;;5071824;28;20831;-67
2023/05/08 10:22:01;;;;;;;4.17;2.30;;;19.10;93.50;;;;;;5070562;28;21004;-67
2023/05/08 10:24:32;;;;;;;2.77;1.90;;;19.10;92.00;;;;;;5075662;28;20435;-67
2023/05/08 10:27:08;;;;;;;2.80;1.50;;;19.10;91.60;;;;;;5071879;28;20532;-68
2023/05/08 10:29:56;;;;;;;2.37;1.50;;;19.20;91.40;;;;;;5074653;28;20483;-67
2023/05/08 10:32:24;;;;;;;2.90;2.17;;;19.20;91.50;;;;;;5073119;28;20874;-67
2023/05/08 10:34:54;;;;;;;2.80;1.70;;;19.30;91.60;;;;;;5075678;28;20459;-67
2023/05/08 10:37:21;;;;;;;2.83;1.53;;;19.40;91.00;;;;;;5073726;28;21131;-67
2023/05/08 10:39:54;;;;;;;3.10;1.63;;;19.40;92.10;;;;;;5079896;28;20531;-67
2023/05/08 10:42:23;;;;;;;3.47;2.00;;;19.40;92.00;;;;;;5072236;28;20891;-67
2023/05/08 10:44:51;;;;;;;2.80;1.90;;;19.40;91.70;;;;;;5078996;28;20515;-67
2023/05/08 10:47:27;;;;;;;2.97;1.90;;;19.50;92.20;;;;;;5075420;28;20475;-67
2023/05/08 10:50:04;;;;;;;3.27;1.97;;;19.50;92.70;;;;;;5071648;28;20435;-67
2023/05/08 10:52:36;;;;;;;3.97;2.07;;;19.60;92.80;;;;;;5075534;28;20478;-67
2023/05/08 10:55:28;;;;;;;3.10;2.00;;;19.60;93.00;;;;;;5078277;28;20493;-67
2023/05/08 10:58:06;;;;;;;4.30;1.70;;;19.50;92.50;;;;;;5067129;28;20452;-67
2023/05/08 11:00:59;;;;;;;2.60;1.80;;;19.40;92.60;;;;;;5074078;28;20427;-67
2023/05/08 11:03:30;;;;;;;3.47;1.93;;;19.40;93.10;;;;;;5073467;28;20443;-67
2023/05/08 11:06:00;;;;;;;3.53;2.53;;;19.30;93.30;;;;;;5078009;28;20932;-67
2023/05/08 11:08:28;;;;;;;4.43;2.40;;;19.30;93.50;;;;;;5074888;28;20513;-67
2023/05/08 11:11:05;;;;;;;3.60;2.90;;;19.30;93.20;;;;;;5079652;28;20523;-67
2023/05/08 11:13:35;;;;;;;3.40;2.40;;;19.30;92.90;;;;;;5074279;28;20510;-68
2023/05/08 11:16:06;;;;;;;3.67;2.63;;;19.40;92.50;;;;;;5074991;28;21016;-67
2023/05/08 11:18:35;;;;;;;5.40;3.70;;;19.40;93.30;;;;;;5074031;28;20500;-67
2023/05/08 11:21:04;;;;;;;4.60;2.93;;;19.50;93.50;;;;;;5077551;28;20963;-67
2023/05/08 11:23:32;;;;;;;7.63;3.40;;;19.50;92.30;;;;;;5074892;28;20511;-67
2023/05/08 11:26:39;;;;;;;3.90;3.10;;;19.50;92.30;;;;;;5075074;28;20479;-67
2023/05/08 11:29:16;;;;;;;8.60;5.47;;;19.50;93.10;;;;;;5072754;28;20443;-67
2023/05/08 11:31:57;;;;;;;6.10;4.80;;;19.50;92.90;;;;;;5074618;28;20446;-67
2023/05/08 11:34:48;;;;;;;9.23;7.10;;;19.50;92.30;;;;;;5074221;28;20443;-67
2023/05/08 11:37:20;;;;;;;8.63;7.70;;;19.50;92.50;;;;;;5072658;28;20479;-67
2023/05/08 11:39:47;;;;;;;8.90;7.83;;;19.50;93.00;;;;;;5074555;28;20522;-67
2023/05/08 11:42:35;;;;;;;9.20;8.00;;;19.50;93.50;;;;;;5074444;28;20494;-67
2023/05/08 11:45:05;;;;;;;9.73;8.60;;;19.60;93.60;;;;;;5071546;28;20497;-67
2023/05/08 11:47:37;;;;;;;10.27;9.00;;;19.70;93.80;;;;;;5074137;28;20435;-67
2023/05/08 11:50:08;;;;;;;10.33;8.80;;;19.80;93.80;;;;;;5074510;28;20510;-67
2023/05/08 11:52:35;;;;;;;10.37;9.27;;;19.80;93.30;;;;;;5077062;28;20432;-67
2023/05/08 11:55:04;;;;;;;12.60;10.50;;;19.70;93.40;;;;;;5076107;28;20444;-67
2023/05/08 11:57:32;;;;;;;14.67;10.00;;;19.60;93.10;;;;;;5074210;28;20488;-67
2023/05/08 12:00:03;;;;;;;11.20;9.93;;;19.40;93.00;;;;;;5074518;28;20785;-67
2023/05/08 12:02:38;;;;;;;13.60;11.10;;;19.20;93.10;;;;;;5072335;28;20530;-67
2023/05/08 12:05:07;;;;;;;14.30;11.47;;;19.00;93.20;;;;;;5075382;28;20500;-67
2023/05/08 12:07:42;;;;;;;16.10;11.80;;;18.90;93.50;;;;;;5080738;28;20534;-67
2023/05/08 12:10:10;;;;;;;16.30;11.90;;;18.80;93.90;;;;;;5081015;28;20478;-67
2023/05/08 12:12:37;;;;;;;14.87;12.73;;;18.70;94.20;;;;;;5078129;28;20494;-67
2023/05/08 12:15:07;;;;;;;15.70;11.63;;;18.70;94.50;;;;;;5082671;28;20451;-67
2023/05/08 12:17:35;;;;;;;16.27;13.20;;;18.70;94.70;;;;;;5084371;28;20517;-67
2023/05/08 12:20:13;;;;;;;15.40;13.13;;;18.70;95.20;;;;;;5079031;28;20428;-67
2023/05/08 12:22:40;;;;;;;14.30;12.73;;;18.70;95.80;;;;;;5077647;28;20526;-67
2023/05/08 12:25:08;;;;;;;16.60;13.07;;;18.70;96.00;;;;;;5078208;28;20436;-67
2023/05/08 12:27:37;;;;;;;14.73;12.40;;;18.70;96.30;;;;;;5077944;28;20470;-67
2023/05/08 12:30:09;;;;;;;16.57;12.80;;;18.80;96.50;;;;;;5086952;28;20522;-67
2023/05/08 12:32:37;;;;;;;15.03;11.10;;;18.80;96.70;;;;;;5072753;28;20440;-67
2023/05/08 12:35:06;;;;;;;16.43;12.67;;;18.80;96.10;;;;;;5078131;28;20444;-67
2023/05/08 12:37:35;;;;;;;16.87;13.00;;;18.80;95.30;;;;;;5071595;28;20487;-67
2023/05/08 12:40:03;;;;;;;16.27;13.87;;;18.90;94.70;;;;;;5081829;28;20483;-67
2023/05/08 12:42:42;;;;;;;17.50;13.00;;;18.90;94.30;;;;;;5073635;28;20447;-67
2023/05/08 12:45:16;;;;;;;17.10;13.77;;;19.00;94.30;;;;;;5070484;28;20436;-67
2023/05/08 12:47:48;;;;;;;15.67;12.93;;;19.00;93.70;;;;;;5075208;28;20494;-67
2023/05/08 12:50:16;;;;;;;16.00;12.27;;;19.00;94.00;;;;;;5074085;28;20523;-67
2023/05/08 12:52:45;;;;;;;15.87;12.60;;;19.00;94.10;;;;;;5081619;28;20877;-68
2023/05/08 12:55:23;;;;;;;19.40;16.03;;;19.00;94.40;;;;;;5080233;28;20443;-67
2023/05/08 12:57:50;;;;;;;15.97;13.90;;;19.10;94.00;;;;;;5079013;28;20566;-67
2023/05/08 13:00:18;;;;;;;18.43;12.60;;;19.10;94.30;;;;;;5081613;28;20436;-67
2023/05/08 13:02:55;;;;;;;17.03;14.10;;;19.10;93.90;;;;;;5073909;28;20448;-67
2023/05/08 13:05:23;;;;;;;15.23;13.07;;;19.10;93.90;;;;;;5073155;28;20444;-67